Time;durP1;ratioP1;P1;durP2;ratioP2;P2;SDS_P1;SDS_P2;PMS_P1;PMS_P2;Temp;Humidity;BMP_temperature;BMP_pressure;BME280_temperature;BME280_humidity;BME280_pressure;Samples;Min_cycle;Max_cycle;Signal;HPM_P1;HPM_P2
2023/07/22 00:00:22;;;;;;;1.95;1.75;;;13.70;99.90;;;;;;5043281;28;20049;-60
2023/07/22 00:02:50;;;;;;;5.10;1.98;;;13.70;99.90;;;;;;5047956;28;20505;-60
2023/07/22 00:05:23;;;;;;;3.47;1.85;;;13.70;99.90;;;;;;5044678;28;20040;-59
2023/07/22 00:07:51;;;;;;;4.47;1.77;;;13.70;99.90;;;;;;5047329;28;20055;-59
2023/07/22 00:10:19;;;;;;;3.45;1.80;;;13.70;99.90;;;;;;5047917;28;20044;-63
2023/07/22 00:12:47;;;;;;;4.22;2.05;;;13.70;99.90;;;;;;5047014;28;20049;-63
2023/07/22 00:15:14;;;;;;;3.53;1.60;;;13.70;99.90;;;;;;5045458;28;20045;-63
2023/07/22 00:17:43;;;;;;;3.20;1.88;;;13.60;99.90;;;;;;5047121;28;20485;-59
2023/07/22 00:20:11;;;;;;;2.65;1.77;;;13.60;99.90;;;;;;5046009;28;20037;-59
2023/07/22 00:22:39;;;;;;;4.03;2.20;;;13.60;99.90;;;;;;5046116;28;20056;-59
2023/07/22 00:25:12;;;;;;;4.53;1.92;;;13.60;99.90;;;;;;5051698;28;20045;-60
2023/07/22 00:27:41;;;;;;;4.55;2.20;;;13.70;99.90;;;;;;5044449;28;20064;-56
2023/07/22 00:30:09;;;;;;;6.07;1.90;;;13.70;99.90;;;;;;5047276;28;20063;-57
2023/07/22 00:32:37;;;;;;;4.18;2.10;;;13.70;99.90;;;;;;5046510;28;20041;-58
2023/07/22 00:35:06;;;;;;;4.65;2.22;;;13.60;99.90;;;;;;5045735;28;20041;-58
2023/07/22 00:37:33;;;;;;;3.58;1.90;;;13.70;99.90;;;;;;5043096;28;20048;-57
2023/07/22 00:40:05;;;;;;;3.03;1.75;;;13.70;99.90;;;;;;5043415;28;20052;-58
2023/07/22 00:42:33;;;;;;;4.80;1.90;;;13.70;99.90;;;;;;5046109;28;20049;-58
2023/07/22 00:45:01;;;;;;;3.22;1.80;;;13.70;99.90;;;;;;5045617;28;20037;-59
2023/07/22 00:47:28;;;;;;;6.00;2.13;;;13.70;99.90;;;;;;5041738;28;20049;-58
2023/07/22 00:49:56;;;;;;;4.65;2.20;;;13.70;99.90;;;;;;5040384;28;20408;-58
2023/07/22 00:52:24;;;;;;;6.13;2.08;;;13.70;99.90;;;;;;5046079;28;20052;-59
2023/07/22 00:54:52;;;;;;;3.22;2.00;;;13.70;99.90;;;;;;5046103;28;20049;-58
2023/07/22 00:57:20;;;;;;;4.95;1.90;;;13.70;99.90;;;;;;5044745;28;20116;-59
2023/07/22 00:59:48;;;;;;;4.40;2.17;;;13.70;99.90;;;;;;5046922;28;20055;-58
2023/07/22 01:02:17;;;;;;;3.80;2.00;;;13.70;99.90;;;;;;5041594;28;20049;-58
2023/07/22 01:04:46;;;;;;;3.95;1.85;;;13.70;99.90;;;;;;5042657;28;20041;-58
2023/07/22 01:07:14;;;;;;;5.45;1.95;;;13.70;99.90;;;;;;5041472;28;20084;-58
2023/07/22 01:09:43;;;;;;;3.03;2.20;;;13.60;99.90;;;;;;5038860;28;20414;-58
2023/07/22 01:12:13;;;;;;;2.78;2.20;;;13.60;99.90;;;;;;5038451;28;20041;-58
2023/07/22 01:14:42;;;;;;;3.72;2.50;;;13.60;99.90;;;;;;5043897;28;20049;-58
2023/07/22 01:17:13;;;;;;;3.53;1.90;;;13.60;99.90;;;;;;5029025;28;20053;-59
2023/07/22 01:19:41;;;;;;;4.93;2.50;;;13.60;99.90;;;;;;5045712;28;20572;-58
2023/07/22 01:22:09;;;;;;;4.15;2.05;;;13.60;99.90;;;;;;5046894;28;20493;-59
2023/07/22 01:24:39;;;;;;;5.65;2.47;;;13.50;99.90;;;;;;5048330;28;20045;-58
2023/07/22 01:27:09;;;;;;;4.65;2.40;;;13.60;99.90;;;;;;5047309;28;20055;-58
2023/07/22 01:29:37;;;;;;;4.95;2.30;;;13.60;99.90;;;;;;5046174;28;20040;-62
2023/07/22 01:32:05;;;;;;;5.40;2.30;;;13.50;99.90;;;;;;5046282;28;20048;-60
2023/07/22 01:34:33;;;;;;;5.93;2.35;;;13.60;99.90;;;;;;5052543;28;20045;-60
2023/07/22 01:37:01;;;;;;;4.43;2.45;;;13.60;99.90;;;;;;5052701;28;20060;-62
2023/07/22 01:39:29;;;;;;;5.05;2.40;;;13.50;99.90;;;;;;5050784;28;20401;-63
2023/07/22 01:41:56;;;;;;;5.57;2.25;;;13.50;99.90;;;;;;5049890;28;20047;-62
2023/07/22 01:44:24;;;;;;;6.32;2.60;;;13.60;99.90;;;;;;5052029;28;20048;-62
2023/07/22 01:46:51;;;;;;;6.38;2.95;;;13.50;99.90;;;;;;5045346;28;20163;-62
2023/07/22 01:49:19;;;;;;;6.35;2.75;;;13.60;99.90;;;;;;5053816;28;20045;-63
2023/07/22 01:51:47;;;;;;;4.63;2.42;;;13.60;99.90;;;;;;5052014;28;20048;-58
2023/07/22 01:54:14;;;;;;;3.15;2.10;;;13.60;99.90;;;;;;5053571;28;20064;-58
2023/07/22 01:56:42;;;;;;;4.10;2.50;;;13.60;99.90;;;;;;5052423;28;20048;-58
2023/07/22 01:59:10;;;;;;;3.72;2.63;;;13.50;99.90;;;;;;5051678;28;20472;-58
2023/07/22 02:01:38;;;;;;;4.50;3.15;;;13.50;99.90;;;;;;5050781;28;20493;-57
2023/07/22 02:04:06;;;;;;;6.47;2.40;;;13.60;99.90;;;;;;5047415;28;20033;-58
2023/07/22 02:06:34;;;;;;;7.07;2.50;;;13.50;99.90;;;;;;5051660;28;20063;-57
2023/07/22 02:09:08;;;;;;;6.47;2.28;;;13.50;99.90;;;;;;5052049;28;20072;-58
2023/07/22 02:11:36;;;;;;;9.65;3.60;;;13.50;99.90;;;;;;5053154;28;20037;-58
2023/07/22 02:14:06;;;;;;;5.28;2.28;;;13.50;99.90;;;;;;5053162;28;20040;-58
2023/07/22 02:16:36;;;;;;;4.97;2.70;;;13.50;99.90;;;;;;5051264;28;20041;-58
2023/07/22 02:19:04;;;;;;;4.05;2.47;;;13.50;99.90;;;;;;5044224;28;20037;-58
2023/07/22 02:21:39;;;;;;;5.65;2.38;;;13.40;99.90;;;;;;5046680;28;20052;-59
2023/07/22 02:24:08;;;;;;;4.25;2.60;;;13.40;99.90;;;;;;5041890;28;20045;-58
2023/07/22 02:26:36;;;;;;;4.07;2.35;;;13.40;99.90;;;;;;5036821;28;20407;-58
2023/07/22 02:29:03;;;;;;;8.25;2.45;;;13.40;99.90;;;;;;5044604;28;20044;-58
2023/07/22 02:31:31;;;;;;;3.25;2.20;;;13.40;99.90;;;;;;5053807;28;20616;-58
2023/07/22 02:33:59;;;;;;;8.18;2.65;;;13.40;99.90;;;;;;5049849;28;20060;-58
2023/07/22 02:36:26;;;;;;;6.22;3.00;;;13.30;99.90;;;;;;5050452;28;20037;-59
2023/07/22 02:38:56;;;;;;;4.65;3.05;;;13.30;99.90;;;;;;5035181;28;20199;-58
2023/07/22 02:41:23;;;;;;;8.00;2.22;;;13.30;99.90;;;;;;5052525;28;20037;-58
2023/07/22 02:43:52;;;;;;;4.45;2.30;;;13.30;99.90;;;;;;5049800;28;20064;-58
2023/07/22 02:46:19;;;;;;;3.65;2.45;;;13.30;99.90;;;;;;5050025;28;20043;-58
2023/07/22 02:48:47;;;;;;;3.97;2.95;;;13.30;99.90;;;;;;5052036;28;20395;-58
2023/07/22 02:51:15;;;;;;;3.15;2.47;;;13.30;99.90;;;;;;5051438;28;20041;-58
2023/07/22 02:53:44;;;;;;;6.30;2.78;;;13.30;99.90;;;;;;5050384;28;20048;-58
2023/07/22 02:56:12;;;;;;;5.07;2.27;;;13.30;99.90;;;;;;5051157;28;20037;-58
2023/07/22 02:58:41;;;;;;;9.18;2.42;;;13.30;99.90;;;;;;5052564;28;20044;-59
2023/07/22 03:01:10;;;;;;;4.10;2.35;;;13.40;99.90;;;;;;5053502;28;20045;-58
2023/07/22 03:03:39;;;;;;;5.68;2.75;;;13.30;99.90;;;;;;5048241;28;20052;-58
2023/07/22 03:06:09;;;;;;;8.25;2.58;;;13.30;99.90;;;;;;5049217;28;20044;-58
2023/07/22 03:08:37;;;;;;;4.88;2.58;;;13.30;99.90;;;;;;5049981;28;20540;-58
2023/07/22 03:11:04;;;;;;;4.45;2.53;;;13.30;99.90;;;;;;5044287;28;20044;-57
2023/07/22 03:13:33;;;;;;;6.43;2.60;;;13.30;99.90;;;;;;5051813;28;20041;-58
2023/07/22 03:16:04;;;;;;;4.15;2.50;;;13.30;99.90;;;;;;5050647;28;20044;-58
2023/07/22 03:18:32;;;;;;;4.95;2.50;;;13.30;99.90;;;;;;5048731;28;20404;-59
2023/07/22 03:20:59;;;;;;;3.30;2.17;;;13.30;99.90;;;;;;5051775;28;20053;-59
2023/07/22 03:23:39;;;;;;;6.18;2.65;;;13.30;99.90;;;;;;5048627;28;20045;-62
2023/07/22 03:26:07;;;;;;;6.05;2.55;;;13.20;99.90;;;;;;5051420;28;20045;-61
2023/07/22 03:28:35;;;;;;;7.47;2.60;;;13.30;99.90;;;;;;5049676;28;20049;-63
2023/07/22 03:31:04;;;;;;;6.00;2.97;;;13.20;99.90;;;;;;5053443;28;20063;-61
2023/07/22 03:33:31;;;;;;;4.57;2.50;;;13.20;99.90;;;;;;5046079;28;20629;-62
2023/07/22 03:35:59;;;;;;;5.82;3.25;;;13.30;99.90;;;;;;5045124;28;20037;-59
2023/07/22 03:38:27;;;;;;;5.65;3.22;;;13.20;99.90;;;;;;5048502;28;20049;-59
2023/07/22 03:40:54;;;;;;;7.63;2.47;;;13.30;99.90;;;;;;5050264;28;20551;-58
2023/07/22 03:43:22;;;;;;;6.45;2.60;;;13.20;99.90;;;;;;5047298;28;20056;-58
2023/07/22 03:45:50;;;;;;;3.72;2.22;;;13.20;99.90;;;;;;5030834;28;20044;-57
2023/07/22 03:48:18;;;;;;;3.70;2.50;;;13.20;99.90;;;;;;5049928;28;20048;-57
2023/07/22 03:50:45;;;;;;;8.80;3.03;;;13.20;99.90;;;;;;5051657;28;20053;-58
2023/07/22 03:53:13;;;;;;;6.22;2.97;;;13.20;99.90;;;;;;5050018;28;20048;-57
2023/07/22 03:55:41;;;;;;;7.63;3.53;;;13.20;99.90;;;;;;5046694;28;20041;-57
2023/07/22 03:58:08;;;;;;;7.15;3.05;;;13.20;99.90;;;;;;5044073;28;20040;-58
2023/07/22 04:00:38;;;;;;;7.80;3.17;;;13.20;99.90;;;;;;5046243;28;20049;-58
2023/07/22 04:03:06;;;;;;;7.47;2.90;;;13.20;99.90;;;;;;5047869;28;20049;-58
2023/07/22 04:05:34;;;;;;;4.78;2.92;;;13.20;99.90;;;;;;5048064;28;20041;-58
2023/07/22 04:08:02;;;;;;;4.85;2.65;;;13.20;99.90;;;;;;5044598;28;20053;-60
2023/07/22 04:10:29;;;;;;;5.10;3.00;;;13.20;99.90;;;;;;5049842;28;20200;-60
2023/07/22 04:12:57;;;;;;;5.35;2.85;;;13.20;99.90;;;;;;5048385;28;20037;-59
2023/07/22 04:15:25;;;;;;;6.25;3.03;;;13.20;99.90;;;;;;5048787;28;20064;-60
2023/07/22 04:17:55;;;;;;;5.47;4.03;;;13.20;99.90;;;;;;5047644;28;20396;-58
2023/07/22 04:20:24;;;;;;;8.90;2.85;;;13.20;99.90;;;;;;5049862;28;20037;-58
2023/07/22 04:22:52;;;;;;;9.20;3.40;;;13.20;99.90;;;;;;5047104;28;20044;-58
2023/07/22 04:25:20;;;;;;;7.65;3.03;;;13.20;99.90;;;;;;5046787;28;20037;-58
2023/07/22 04:27:48;;;;;;;8.73;3.42;;;13.20;99.90;;;;;;5040483;28;20045;-58
2023/07/22 04:30:20;;;;;;;9.38;3.88;;;13.20;99.90;;;;;;5048396;28;20566;-58
2023/07/22 04:32:49;;;;;;;4.63;3.22;;;13.20;99.90;;;;;;5048845;28;20045;-58
2023/07/22 04:35:17;;;;;;;6.40;3.45;;;13.20;99.90;;;;;;5033089;28;20060;-58
2023/07/22 04:37:45;;;;;;;7.43;4.07;;;13.20;99.90;;;;;;5032096;28;20045;-59
2023/07/22 04:40:16;;;;;;;8.40;3.50;;;13.20;99.90;;;;;;5046112;28;20052;-58
2023/07/22 04:42:45;;;;;;;10.73;3.95;;;13.20;99.90;;;;;;5045305;28;20041;-57
2023/07/22 04:45:13;;;;;;;7.15;3.80;;;13.30;99.90;;;;;;5048975;28;20037;-58
2023/07/22 04:47:44;;;;;;;10.13;4.40;;;13.20;99.90;;;;;;5035454;28;20050;-58
2023/07/22 04:50:12;;;;;;;8.65;4.32;;;13.20;99.90;;;;;;5038891;28;20048;-57
2023/07/22 04:52:46;;;;;;;8.70;4.15;;;13.20;99.90;;;;;;5044630;28;20052;-58
2023/07/22 04:55:14;;;;;;;8.73;4.15;;;13.30;99.90;;;;;;5046972;28;20062;-59
2023/07/22 04:57:45;;;;;;;7.50;3.58;;;13.30;99.90;;;;;;5043540;28;20068;-57
2023/07/22 05:00:14;;;;;;;11.57;3.60;;;13.30;99.90;;;;;;5045336;28;20055;-58
2023/07/22 05:02:46;;;;;;;11.73;4.45;;;13.30;99.90;;;;;;5038575;28;20549;-58
2023/07/22 05:05:18;;;;;;;11.15;3.85;;;13.30;99.90;;;;;;5047566;28;20059;-58
2023/07/22 05:07:45;;;;;;;11.32;4.05;;;13.30;99.90;;;;;;5040480;28;20045;-58
2023/07/22 05:10:13;;;;;;;8.93;3.97;;;13.40;99.90;;;;;;5047214;28;20033;-58
2023/07/22 05:12:43;;;;;;;13.98;4.65;;;13.40;99.90;;;;;;5040656;28;20374;-58
2023/07/22 05:15:13;;;;;;;8.05;4.70;;;13.40;99.90;;;;;;5038189;28;20483;-58
2023/07/22 05:17:41;;;;;;;6.95;4.40;;;13.40;99.90;;;;;;5043744;28;20046;-58
2023/07/22 05:20:10;;;;;;;10.02;4.72;;;13.40;99.90;;;;;;5040968;28;20052;-58
2023/07/22 05:22:38;;;;;;;8.43;4.72;;;13.50;99.90;;;;;;5047081;28;20489;-58
2023/07/22 05:25:06;;;;;;;10.40;4.65;;;13.50;99.90;;;;;;5049538;28;20056;-59
2023/07/22 05:27:34;;;;;;;11.02;5.32;;;13.50;99.90;;;;;;5047909;28;20028;-58
2023/07/22 05:30:02;;;;;;;8.25;4.45;;;13.50;99.90;;;;;;5049181;28;20045;-58
2023/07/22 05:32:30;;;;;;;12.35;5.07;;;13.50;99.90;;;;;;5051131;28;20037;-58
2023/07/22 05:35:02;;;;;;;10.48;5.32;;;13.60;99.90;;;;;;5040738;28;20061;-58
2023/07/22 05:37:29;;;;;;;10.68;5.07;;;13.60;99.90;;;;;;5044097;28;20052;-58
2023/07/22 05:39:59;;;;;;;9.52;5.07;;;13.50;99.90;;;;;;5044179;28;20045;-58
2023/07/22 05:42:28;;;;;;;13.13;6.10;;;13.50;99.90;;;;;;5051579;28;20041;-58
2023/07/22 05:44:57;;;;;;;12.63;5.88;;;13.50;99.90;;;;;;5048335;28;20384;-58
2023/07/22 05:47:25;;;;;;;8.70;5.07;;;13.50;99.90;;;;;;5050219;28;20403;-58
2023/07/22 05:49:53;;;;;;;15.35;6.30;;;13.50;99.90;;;;;;5048475;28;20048;-58
2023/07/22 05:52:21;;;;;;;12.82;5.38;;;13.50;99.90;;;;;;5049094;28;20438;-58
2023/07/22 05:54:49;;;;;;;18.40;6.00;;;13.50;99.90;;;;;;5050713;28;20052;-58
2023/07/22 05:57:17;;;;;;;15.93;5.43;;;13.50;99.90;;;;;;5049576;28;20048;-58
2023/07/22 05:59:45;;;;;;;12.35;6.10;;;13.60;99.90;;;;;;5047808;28;20392;-59
2023/07/22 06:02:13;;;;;;;17.27;6.53;;;13.50;99.90;;;;;;5054169;28;20484;-58
2023/07/22 06:04:41;;;;;;;14.10;7.03;;;13.50;99.90;;;;;;5045647;28;20056;-58
2023/07/22 06:07:09;;;;;;;14.25;7.00;;;13.50;99.90;;;;;;5046093;28;20412;-58
2023/07/22 06:09:37;;;;;;;17.45;7.57;;;13.50;99.90;;;;;;5046658;28;20067;-58
2023/07/22 06:12:05;;;;;;;14.75;7.00;;;13.50;99.90;;;;;;5045347;28;20045;-58
2023/07/22 06:14:34;;;;;;;15.98;7.05;;;13.50;99.90;;;;;;5051146;28;20071;-58
2023/07/22 06:17:02;;;;;;;15.88;7.40;;;13.40;99.90;;;;;;5045372;28;20037;-58
2023/07/22 06:19:30;;;;;;;15.52;6.97;;;13.40;99.90;;;;;;5041154;28;20048;-58
2023/07/22 06:21:58;;;;;;;15.05;7.68;;;13.40;99.90;;;;;;5041830;28;20048;-58
2023/07/22 06:24:26;;;;;;;22.02;7.75;;;13.40;99.90;;;;;;5043117;28;20056;-58
2023/07/22 06:26:55;;;;;;;18.65;8.45;;;13.50;99.90;;;;;;5046212;28;20052;-58
2023/07/22 06:29:22;;;;;;;16.63;7.35;;;13.50;99.90;;;;;;5039766;28;20042;-58
2023/07/22 06:31:50;;;;;;;19.35;8.75;;;13.40;99.90;;;;;;5045833;28;20099;-58
2023/07/22 06:34:17;;;;;;;16.05;7.40;;;13.40;99.90;;;;;;5040596;28;20398;-58
2023/07/22 06:36:45;;;;;;;18.02;7.88;;;13.40;99.90;;;;;;5045676;28;20040;-58
2023/07/22 06:39:13;;;;;;;19.02;7.95;;;13.40;99.90;;;;;;5044180;28;20049;-58
2023/07/22 06:41:40;;;;;;;21.83;8.73;;;13.40;99.90;;;;;;5044777;28;20373;-58
2023/07/22 06:44:08;;;;;;;18.65;8.02;;;13.40;99.90;;;;;;5050561;28;20376;-60
2023/07/22 06:46:48;;;;;;;15.40;7.53;;;13.40;99.90;;;;;;5049082;28;20033;-59
2023/07/22 06:49:16;;;;;;;17.52;8.23;;;13.50;99.90;;;;;;5046455;28;20052;-61
2023/07/22 06:51:44;;;;;;;16.10;7.05;;;13.50;99.90;;;;;;5031560;28;20048;-59
2023/07/22 06:54:11;;;;;;;18.27;7.97;;;13.40;99.90;;;;;;5048778;28;20049;-60
2023/07/22 06:56:39;;;;;;;14.52;7.57;;;13.50;99.90;;;;;;5047515;28;20048;-62
2023/07/22 06:59:07;;;;;;;19.25;7.05;;;13.40;99.90;;;;;;5047466;28;20052;-61
2023/07/22 07:01:34;;;;;;;15.65;7.53;;;13.40;99.90;;;;;;5045257;28;20064;-59
2023/07/22 07:04:03;;;;;;;18.73;7.13;;;13.40;99.90;;;;;;5040916;28;20049;-57
2023/07/22 07:06:31;;;;;;;14.50;7.50;;;13.40;99.90;;;;;;5043526;28;20053;-57
2023/07/22 07:09:00;;;;;;;16.15;6.75;;;13.40;99.90;;;;;;5046151;28;20052;-57
2023/07/22 07:11:29;;;;;;;18.45;7.35;;;13.40;99.90;;;;;;5048883;28;20045;-58
2023/07/22 07:13:57;;;;;;;16.95;7.63;;;13.40;99.90;;;;;;5048275;28;20481;-57
2023/07/22 07:16:31;;;;;;;11.63;6.43;;;13.40;99.90;;;;;;5047180;28;20048;-56
2023/07/22 07:19:00;;;;;;;13.90;6.13;;;13.50;99.90;;;;;;5046241;28;20034;-57
2023/07/22 07:21:28;;;;;;;12.85;6.30;;;13.40;99.90;;;;;;5048457;28;20083;-56
2023/07/22 07:23:56;;;;;;;18.45;6.68;;;13.40;99.90;;;;;;5045387;28;20048;-56
2023/07/22 07:26:23;;;;;;;14.52;5.57;;;13.40;99.90;;;;;;5044467;28;20053;-58
2023/07/22 07:28:52;;;;;;;15.98;6.32;;;13.40;99.90;;;;;;5048591;28;20049;-57
2023/07/22 07:31:20;;;;;;;10.32;5.63;;;13.40;99.90;;;;;;5049993;28;20049;-59
2023/07/22 07:33:48;;;;;;;12.90;5.53;;;13.30;99.90;;;;;;5034243;28;20059;-57
2023/07/22 07:36:15;;;;;;;13.88;6.00;;;13.30;99.90;;;;;;5033895;28;20048;-57
2023/07/22 07:38:43;;;;;;;18.02;6.07;;;13.30;99.90;;;;;;5037045;28;20371;-58
2023/07/22 07:41:12;;;;;;;11.80;6.15;;;13.40;99.90;;;;;;5037164;28;20064;-58
2023/07/22 07:43:43;;;;;;;13.00;6.07;;;13.30;99.90;;;;;;5038598;28;20049;-58
2023/07/22 07:46:28;;;;;;;17.33;6.45;;;13.30;99.90;;;;;;5043270;28;20049;-57
2023/07/22 07:48:59;;;;;;;13.20;5.60;;;13.30;99.90;;;;;;5037764;28;20060;-57
2023/07/22 07:51:29;;;;;;;13.02;5.60;;;13.40;99.90;;;;;;5043595;28;20041;-57
2023/07/22 07:53:58;;;;;;;13.27;6.28;;;13.40;99.90;;;;;;5044144;28;20032;-57
2023/07/22 07:56:26;;;;;;;14.73;6.10;;;13.40;99.90;;;;;;5039552;28;20044;-57
2023/07/22 07:58:54;;;;;;;12.23;5.95;;;13.40;99.90;;;;;;5041973;28;20052;-56
2023/07/22 08:01:22;;;;;;;10.77;5.50;;;13.40;99.90;;;;;;5044825;28;20041;-56
2023/07/22 08:03:50;;;;;;;12.18;5.63;;;13.40;99.90;;;;;;5045485;28;20061;-56
2023/07/22 08:06:19;;;;;;;11.02;5.53;;;13.40;99.90;;;;;;5037271;28;20040;-56
2023/07/22 08:08:49;;;;;;;12.50;6.07;;;13.50;99.90;;;;;;5043540;28;20045;-56
2023/07/22 08:11:18;;;;;;;15.75;6.53;;;13.50;99.90;;;;;;5042864;28;20041;-56
2023/07/22 08:13:46;;;;;;;14.57;6.88;;;13.50;99.90;;;;;;5043510;28;20046;-56
2023/07/22 08:16:15;;;;;;;15.35;6.60;;;13.50;99.90;;;;;;5037549;28;20056;-55
2023/07/22 08:18:43;;;;;;;21.33;7.60;;;13.50;99.90;;;;;;5043471;28;20052;-56
2023/07/22 08:21:11;;;;;;;19.85;6.78;;;13.50;99.90;;;;;;5039605;28;20051;-56
2023/07/22 08:23:39;;;;;;;19.13;6.88;;;13.50;99.90;;;;;;5042902;28;20448;-57
2023/07/22 08:26:07;;;;;;;13.85;6.57;;;13.50;99.90;;;;;;5042877;28;20047;-57
2023/07/22 08:28:34;;;;;;;14.80;6.53;;;13.50;99.90;;;;;;5043779;28;20056;-57
2023/07/22 08:31:02;;;;;;;15.63;6.60;;;13.50;99.90;;;;;;5045759;28;20052;-56
2023/07/22 08:33:30;;;;;;;14.15;6.38;;;13.50;99.90;;;;;;5038351;28;20476;-56
2023/07/22 08:36:02;;;;;;;15.02;7.10;;;13.50;99.90;;;;;;5032030;28;20388;-56
2023/07/22 08:38:31;;;;;;;15.82;6.82;;;13.40;99.90;;;;;;5035769;28;20371;-56
2023/07/22 08:40:58;;;;;;;14.85;6.70;;;13.50;99.90;;;;;;5040735;28;20116;-56
2023/07/22 08:43:28;;;;;;;14.55;6.88;;;13.50;99.90;;;;;;5033099;28;20485;-56
2023/07/22 08:46:00;;;;;;;17.48;6.72;;;13.50;99.90;;;;;;5035611;28;20041;-55
2023/07/22 08:48:32;;;;;;;15.75;6.35;;;13.50;99.90;;;;;;5041297;28;20052;-55
2023/07/22 08:51:06;;;;;;;14.95;6.38;;;13.60;99.90;;;;;;5035342;28;20049;-55
2023/07/22 08:53:34;;;;;;;17.30;7.32;;;13.60;99.90;;;;;;5035113;28;20050;-55
2023/07/22 08:56:02;;;;;;;14.82;6.80;;;13.60;99.90;;;;;;5037043;28;20567;-55
2023/07/22 08:58:30;;;;;;;19.75;7.15;;;13.60;99.90;;;;;;5040003;28;20049;-55
2023/07/22 09:00:59;;;;;;;16.33;7.30;;;13.60;99.90;;;;;;5047248;28;20056;-56
2023/07/22 09:03:27;;;;;;;15.87;5.80;;;13.70;99.90;;;;;;5042341;28;20072;-58
2023/07/22 09:05:55;;;;;;;19.15;7.10;;;13.70;99.90;;;;;;5044785;28;20049;-57
2023/07/22 09:08:24;;;;;;;17.05;7.03;;;13.70;99.90;;;;;;5044730;28;20052;-58
2023/07/22 09:10:52;;;;;;;16.05;7.63;;;13.80;99.90;;;;;;5046197;28;20506;-56
2023/07/22 09:13:22;;;;;;;17.67;7.25;;;13.80;99.90;;;;;;5046977;28;20052;-56
2023/07/22 09:15:51;;;;;;;16.83;6.93;;;13.80;99.90;;;;;;5045053;28;20064;-55
2023/07/22 09:18:19;;;;;;;14.53;7.20;;;13.80;99.90;;;;;;5043845;28;20052;-55
2023/07/22 09:20:46;;;;;;;16.80;7.07;;;13.90;99.90;;;;;;5045729;28;20045;-55
2023/07/22 09:23:14;;;;;;;17.63;6.93;;;13.90;99.90;;;;;;5044806;28;20041;-58
2023/07/22 09:25:42;;;;;;;17.27;7.57;;;13.90;99.90;;;;;;5049812;28;20052;-57
2023/07/22 09:28:10;;;;;;;16.60;6.90;;;14.00;99.90;;;;;;5045827;28;20358;-58
2023/07/22 09:30:40;;;;;;;14.93;7.75;;;14.00;99.90;;;;;;5048577;28;20045;-59
2023/07/22 09:33:21;;;;;;;17.10;7.65;;;14.10;99.90;;;;;;5047100;28;20397;-58
2023/07/22 09:35:50;;;;;;;15.43;6.90;;;14.10;99.90;;;;;;5042380;28;20037;-58
2023/07/22 09:38:25;;;;;;;13.02;6.57;;;14.10;99.90;;;;;;5038298;28;20131;-57
2023/07/22 09:40:53;;;;;;;13.82;6.55;;;14.20;99.90;;;;;;5041822;28;20048;-57
2023/07/22 09:43:23;;;;;;;17.10;7.30;;;14.20;99.90;;;;;;5045875;28;20403;-58
2023/07/22 09:45:51;;;;;;;14.55;7.30;;;14.30;99.90;;;;;;5049894;28;20048;-58
2023/07/22 09:48:21;;;;;;;14.65;6.30;;;14.40;99.90;;;;;;5048069;28;20477;-57
2023/07/22 09:50:58;;;;;;;13.70;5.95;;;14.50;99.90;;;;;;5050290;28;20053;-56
2023/07/22 09:53:26;;;;;;;14.70;7.50;;;14.60;99.90;;;;;;5045378;28;20045;-56
2023/07/22 09:55:53;;;;;;;11.70;6.13;;;14.70;99.90;;;;;;5049329;28;20496;-56
2023/07/22 09:58:25;;;;;;;11.75;6.13;;;14.80;99.90;;;;;;5045668;28;20048;-57
2023/07/22 10:00:54;;;;;;;12.10;6.07;;;14.80;99.90;;;;;;5051081;28;20040;-58
2023/07/22 10:03:28;;;;;;;19.88;6.03;;;14.90;99.90;;;;;;5036188;28;20485;-58
2023/07/22 10:06:01;;;;;;;13.35;6.80;;;15.00;99.90;;;;;;5035210;28;20892;-58
2023/07/22 10:08:33;;;;;;;13.65;5.78;;;15.10;99.90;;;;;;5045767;28;20057;-58
2023/07/22 10:11:09;;;;;;;10.73;5.30;;;15.20;99.90;;;;;;5050153;28;20427;-57
2023/07/22 10:13:38;;;;;;;9.98;5.05;;;15.30;99.90;;;;;;5047493;28;20045;-58
2023/07/22 10:16:05;;;;;;;14.82;5.43;;;15.30;99.90;;;;;;5046218;28;20041;-58
2023/07/22 10:18:34;;;;;;;10.07;5.20;;;15.40;99.90;;;;;;5048371;28;20049;-55
2023/07/22 10:21:02;;;;;;;10.27;4.85;;;15.40;99.90;;;;;;5046483;28;20376;-54
2023/07/22 10:23:32;;;;;;;8.20;4.63;;;15.50;99.90;;;;;;5047428;28;20072;-55
2023/07/22 10:25:59;;;;;;;7.57;4.50;;;15.50;99.90;;;;;;5047194;28;20056;-55
2023/07/22 10:28:29;;;;;;;11.48;4.90;;;15.60;99.90;;;;;;5046276;28;20049;-55
2023/07/22 10:30:57;;;;;;;6.97;4.00;;;15.60;99.90;;;;;;5047165;28;20053;-57
2023/07/22 10:33:25;;;;;;;7.18;4.00;;;15.60;99.90;;;;;;5043991;28;20044;-58
2023/07/22 10:36:12;;;;;;;8.48;4.13;;;15.60;99.90;;;;;;5045914;28;20049;-57
2023/07/22 10:38:40;;;;;;;7.95;3.80;;;15.60;99.90;;;;;;5039201;28;20046;-58
2023/07/22 10:41:18;;;;;;;6.43;3.80;;;15.60;99.90;;;;;;5044709;28;20057;-58
2023/07/22 10:43:57;;;;;;;9.15;3.58;;;15.60;99.90;;;;;;5051076;28;20403;-57
2023/07/22 10:46:34;;;;;;;6.97;3.50;;;15.60;99.90;;;;;;5028067;28;20057;-58
2023/07/22 10:49:13;;;;;;;5.10;2.92;;;15.70;99.90;;;;;;5042032;28;20045;-58
2023/07/22 10:51:51;;;;;;;5.82;2.90;;;15.70;99.90;;;;;;5044668;28;20414;-57
2023/07/22 10:54:36;;;;;;;4.97;2.50;;;15.70;99.90;;;;;;5043461;28;20037;-58
2023/07/22 10:57:24;;;;;;;6.45;2.50;;;15.70;99.90;;;;;;5015971;28;20049;-58
2023/07/22 10:59:52;;;;;;;7.15;3.22;;;15.70;99.90;;;;;;5040747;28;20068;-57
2023/07/22 11:02:28;;;;;;;4.68;2.65;;;15.70;99.90;;;;;;5046845;28;20060;-56
2023/07/22 11:04:59;;;;;;;4.03;2.22;;;15.70;99.90;;;;;;5045611;28;20047;-55
2023/07/22 11:07:43;;;;;;;4.10;2.53;;;15.70;99.90;;;;;;5042709;28;20056;-55
2023/07/22 11:10:18;;;;;;;3.72;2.05;;;15.80;99.90;;;;;;5040241;28;20064;-55
2023/07/22 11:12:48;;;;;;;2.97;2.13;;;15.70;99.90;;;;;;5033130;28;20053;-55
2023/07/22 11:15:17;;;;;;;4.00;2.17;;;15.80;99.90;;;;;;5047082;28;20060;-56
2023/07/22 11:17:45;;;;;;;3.33;1.88;;;15.80;99.90;;;;;;5044976;28;20049;-59
2023/07/22 11:20:13;;;;;;;3.05;1.90;;;15.80;99.90;;;;;;5040116;28;20477;-59
2023/07/22 11:22:41;;;;;;;3.10;1.80;;;15.80;99.90;;;;;;5045249;28;20045;-59
2023/07/22 11:25:09;;;;;;;3.42;2.05;;;15.80;99.90;;;;;;5044546;28;20045;-58
2023/07/22 11:27:37;;;;;;;2.33;1.85;;;15.90;99.90;;;;;;5044825;28;20052;-58
2023/07/22 11:30:05;;;;;;;5.82;2.35;;;16.00;99.90;;;;;;5038726;28;20052;-58
2023/07/22 11:32:34;;;;;;;4.40;1.85;;;16.00;99.90;;;;;;5044506;28;20041;-59
2023/07/22 11:35:01;;;;;;;3.63;2.10;;;16.20;99.90;;;;;;5043079;28;20044;-61
2023/07/22 11:37:30;;;;;;;2.40;1.80;;;16.20;99.90;;;;;;5040527;28;20048;-55
2023/07/22 11:40:01;;;;;;;2.70;1.95;;;16.30;99.90;;;;;;5041520;28;20064;-57
2023/07/22 11:42:29;;;;;;;4.63;2.50;;;16.30;99.90;;;;;;5034186;28;20048;-56
2023/07/22 11:44:57;;;;;;;3.10;2.08;;;16.30;99.90;;;;;;5049232;28;20052;-54
2023/07/22 11:47:31;;;;;;;3.78;2.05;;;16.30;99.90;;;;;;5043850;28;20037;-55
2023/07/22 11:50:00;;;;;;;5.57;2.40;;;16.30;99.90;;;;;;5043870;28;20041;-56
2023/07/22 11:52:28;;;;;;;3.67;2.13;;;16.40;99.90;;;;;;5027395;28;20692;-56
2023/07/22 11:55:03;;;;;;;3.75;2.22;;;16.30;99.90;;;;;;5027938;28;20049;-56
2023/07/22 11:57:30;;;;;;;4.50;2.40;;;16.20;99.90;;;;;;5031873;28;20033;-55
2023/07/22 11:59:58;;;;;;;4.43;2.20;;;16.20;99.90;;;;;;5044569;28;20045;-56
2023/07/22 12:02:34;;;;;;;5.82;2.65;;;16.20;99.90;;;;;;5045570;28;20057;-59
2023/07/22 12:05:05;;;;;;;4.65;2.53;;;16.20;99.90;;;;;;5052005;28;20515;-57
2023/07/22 12:07:35;;;;;;;5.32;2.75;;;16.20;99.90;;;;;;5046999;28;20052;-54
2023/07/22 12:10:06;;;;;;;4.45;2.40;;;16.10;99.90;;;;;;5040261;28;20052;-54
2023/07/22 12:12:39;;;;;;;5.55;3.03;;;16.10;99.90;;;;;;5031297;28;20075;-55
2023/07/22 12:15:17;;;;;;;5.03;3.30;;;16.10;99.90;;;;;;5048445;28;20041;-54
2023/07/22 12:17:58;;;;;;;5.25;3.15;;;16.10;99.90;;;;;;5038106;28;20060;-55
2023/07/22 12:20:27;;;;;;;4.47;2.58;;;16.10;99.90;;;;;;5043063;28;20051;-55
2023/07/22 12:22:56;;;;;;;4.95;2.15;;;16.10;99.90;;;;;;5035904;28;20060;-54
2023/07/22 12:25:24;;;;;;;2.67;2.10;;;16.10;99.90;;;;;;5043455;28;20056;-57
2023/07/22 12:27:52;;;;;;;4.15;2.30;;;16.10;99.90;;;;;;5039465;28;20496;-58
2023/07/22 12:30:21;;;;;;;6.35;2.70;;;16.10;99.90;;;;;;5041038;28;20052;-55
2023/07/22 12:32:48;;;;;;;4.72;2.45;;;16.10;99.90;;;;;;5045231;28;20052;-55
2023/07/22 12:35:16;;;;;;;3.58;2.20;;;16.10;99.90;;;;;;5046467;28;20041;-56
2023/07/22 12:37:44;;;;;;;5.10;2.90;;;16.10;99.90;;;;;;5044200;28;20052;-59
2023/07/22 12:40:12;;;;;;;4.43;2.20;;;16.20;99.90;;;;;;5046086;28;20048;-59
2023/07/22 12:42:40;;;;;;;3.65;2.20;;;16.20;99.90;;;;;;5049750;28;20044;-59
2023/07/22 12:45:09;;;;;;;4.60;1.90;;;16.20;99.90;;;;;;5048168;28;20056;-59
2023/07/22 12:47:36;;;;;;;2.85;1.90;;;16.20;99.90;;;;;;5046692;28;20041;-59
2023/07/22 12:50:08;;;;;;;3.47;2.20;;;16.20;99.90;;;;;;5046727;28;20640;-59
2023/07/22 12:52:36;;;;;;;2.78;1.77;;;16.30;99.90;;;;;;5047381;28;20045;-58